sensor_id;sensor_type;location;lat;lon;timestamp;P1;durP1;ratioP1;P2;durP2;ratioP2
23290;SDS011;11814;44.686;10.842;2022-08-24T00:00:12;2.60;;;1.13;;
23290;SDS011;11814;44.686;10.842;2022-08-24T00:02:41;2.88;;;1.10;;
23290;SDS011;11814;44.686;10.842;2022-08-24T00:05:07;6.22;;;1.30;;
23290;SDS011;11814;44.686;10.842;2022-08-24T00:07:34;3.15;;;1.30;;
23290;SDS011;11814;44.686;10.842;2022-08-24T00:10:00;3.80;;;1.20;;
23290;SDS011;11814;44.686;10.842;2022-08-24T00:12:28;2.75;;;1.10;;
23290;SDS011;11814;44.686;10.842;2022-08-24T00:14:55;1.90;;;1.00;;
23290;SDS011;11814;44.686;10.842;2022-08-24T00:17:20;3.00;;;1.20;;
23290;SDS011;11814;44.686;10.842;2022-08-24T00:19:46;3.28;;;1.10;;
23290;SDS011;11814;44.686;10.842;2022-08-24T00:22:12;5.05;;;1.23;;
23290;SDS011;11814;44.686;10.842;2022-08-24T00:24:38;7.53;;;1.10;;
23290;SDS011;11814;44.686;10.842;2022-08-24T00:27:05;6.78;;;1.30;;
23290;SDS011;11814;44.686;10.842;2022-08-24T00:29:31;6.75;;;1.40;;
23290;SDS011;11814;44.686;10.842;2022-08-24T00:31:58;4.15;;;1.50;;
23290;SDS011;11814;44.686;10.842;2022-08-24T00:34:24;4.05;;;1.40;;
23290;SDS011;11814;44.686;10.842;2022-08-24T00:36:50;3.55;;;1.77;;
23290;SDS011;11814;44.686;10.842;2022-08-24T00:39:17;5.47;;;1.58;;
23290;SDS011;11814;44.686;10.842;2022-08-24T00:41:43;4.50;;;1.80;;
23290;SDS011;11814;44.686;10.842;2022-08-24T00:44:10;6.65;;;1.80;;
23290;SDS011;11814;44.686;10.842;2022-08-24T00:46:42;4.20;;;1.63;;
23290;SDS011;11814;44.686;10.842;2022-08-24T00:49:37;4.53;;;1.50;;
23290;SDS011;11814;44.686;10.842;2022-08-24T00:52:41;3.65;;;1.45;;
23290;SDS011;11814;44.686;10.842;2022-08-24T00:55:21;3.75;;;1.70;;
23290;SDS011;11814;44.686;10.842;2022-08-24T00:57:53;5.50;;;1.70;;
23290;SDS011;11814;44.686;10.842;2022-08-24T01:00:24;3.92;;;1.70;;
23290;SDS011;11814;44.686;10.842;2022-08-24T01:02:53;5.35;;;1.27;;
23290;SDS011;11814;44.686;10.842;2022-08-24T01:05:28;5.15;;;1.65;;
23290;SDS011;11814;44.686;10.842;2022-08-24T01:07:55;6.70;;;1.67;;
23290;SDS011;11814;44.686;10.842;2022-08-24T01:10:24;2.95;;;1.80;;
23290;SDS011;11814;44.686;10.842;2022-08-24T01:12:53;5.47;;;2.60;;
23290;SDS011;11814;44.686;10.842;2022-08-24T01:15:22;7.70;;;1.90;;
23290;SDS011;11814;44.686;10.842;2022-08-24T01:17:48;5.85;;;2.10;;
23290;SDS011;11814;44.686;10.842;2022-08-24T01:20:32;5.10;;;2.15;;
23290;SDS011;11814;44.686;10.842;2022-08-24T01:25:52;5.60;;;1.70;;
23290;SDS011;11814;44.686;10.842;2022-08-24T01:28:18;7.38;;;1.70;;
23290;SDS011;11814;44.686;10.842;2022-08-24T01:30:45;8.23;;;1.90;;
23290;SDS011;11814;44.686;10.842;2022-08-24T01:33:20;9.20;;;1.63;;
23290;SDS011;11814;44.686;10.842;2022-08-24T01:35:47;6.90;;;1.55;;
23290;SDS011;11814;44.686;10.842;2022-08-24T01:38:14;8.55;;;1.50;;
23290;SDS011;11814;44.686;10.842;2022-08-24T01:40:45;5.53;;;1.25;;
23290;SDS011;11814;44.686;10.842;2022-08-24T01:43:13;4.38;;;1.50;;
23290;SDS011;11814;44.686;10.842;2022-08-24T01:45:39;2.13;;;1.52;;
23290;SDS011;11814;44.686;10.842;2022-08-24T01:48:06;8.57;;;1.23;;
23290;SDS011;11814;44.686;10.842;2022-08-24T01:50:32;4.18;;;1.35;;
23290;SDS011;11814;44.686;10.842;2022-08-24T01:52:58;4.13;;;1.00;;
23290;SDS011;11814;44.686;10.842;2022-08-24T01:55:26;1.88;;;1.15;;
23290;SDS011;11814;44.686;10.842;2022-08-24T01:57:52;3.38;;;1.13;;
23290;SDS011;11814;44.686;10.842;2022-08-24T02:00:18;4.35;;;0.82;;
23290;SDS011;11814;44.686;10.842;2022-08-24T02:02:45;3.17;;;1.27;;
23290;SDS011;11814;44.686;10.842;2022-08-24T02:05:11;1.45;;;0.80;;
23290;SDS011;11814;44.686;10.842;2022-08-24T02:07:39;1.52;;;0.80;;
23290;SDS011;11814;44.686;10.842;2022-08-24T02:10:05;12.25;;;1.20;;
23290;SDS011;11814;44.686;10.842;2022-08-24T02:12:33;2.63;;;0.90;;
23290;SDS011;11814;44.686;10.842;2022-08-24T02:14:59;3.50;;;1.25;;
23290;SDS011;11814;44.686;10.842;2022-08-24T02:17:26;5.05;;;1.25;;
23290;SDS011;11814;44.686;10.842;2022-08-24T02:19:52;3.00;;;0.90;;
23290;SDS011;11814;44.686;10.842;2022-08-24T02:22:18;3.70;;;1.35;;
23290;SDS011;11814;44.686;10.842;2022-08-24T02:24:44;3.35;;;1.27;;
23290;SDS011;11814;44.686;10.842;2022-08-24T02:27:10;4.55;;;1.15;;
23290;SDS011;11814;44.686;10.842;2022-08-24T02:29:35;4.22;;;1.55;;
23290;SDS011;11814;44.686;10.842;2022-08-24T02:32:02;4.38;;;1.52;;
23290;SDS011;11814;44.686;10.842;2022-08-24T02:34:29;4.78;;;2.05;;
23290;SDS011;11814;44.686;10.842;2022-08-24T02:36:54;4.05;;;2.33;;
23290;SDS011;11814;44.686;10.842;2022-08-24T02:39:20;4.22;;;2.30;;
23290;SDS011;11814;44.686;10.842;2022-08-24T02:41:46;6.05;;;2.58;;
23290;SDS011;11814;44.686;10.842;2022-08-24T02:44:11;8.18;;;3.13;;
23290;SDS011;11814;44.686;10.842;2022-08-24T02:46:37;6.30;;;2.63;;
23290;SDS011;11814;44.686;10.842;2022-08-24T02:49:03;5.25;;;2.92;;
23290;SDS011;11814;44.686;10.842;2022-08-24T02:51:30;4.43;;;3.22;;
23290;SDS011;11814;44.686;10.842;2022-08-24T02:53:58;4.00;;;3.05;;
23290;SDS011;11814;44.686;10.842;2022-08-24T02:56:26;5.85;;;3.35;;
23290;SDS011;11814;44.686;10.842;2022-08-24T02:58:54;5.32;;;3.47;;
23290;SDS011;11814;44.686;10.842;2022-08-24T03:01:20;8.57;;;3.30;;
23290;SDS011;11814;44.686;10.842;2022-08-24T03:03:46;3.35;;;1.80;;
23290;SDS011;11814;44.686;10.842;2022-08-24T03:06:12;3.60;;;1.65;;
23290;SDS011;11814;44.686;10.842;2022-08-24T03:08:38;3.47;;;1.73;;
23290;SDS011;11814;44.686;10.842;2022-08-24T03:11:04;2.83;;;1.60;;
23290;SDS011;11814;44.686;10.842;2022-08-24T03:13:32;6.55;;;1.55;;
23290;SDS011;11814;44.686;10.842;2022-08-24T03:15:59;5.25;;;1.90;;
23290;SDS011;11814;44.686;10.842;2022-08-24T03:18:26;2.30;;;1.60;;
23290;SDS011;11814;44.686;10.842;2022-08-24T03:20:55;3.35;;;2.03;;
23290;SDS011;11814;44.686;10.842;2022-08-24T03:23:22;4.10;;;2.22;;
23290;SDS011;11814;44.686;10.842;2022-08-24T03:25:49;4.32;;;2.88;;
23290;SDS011;11814;44.686;10.842;2022-08-24T03:28:16;4.40;;;2.00;;
23290;SDS011;11814;44.686;10.842;2022-08-24T03:30:42;5.40;;;2.33;;
23290;SDS011;11814;44.686;10.842;2022-08-24T03:33:08;2.40;;;2.03;;
23290;SDS011;11814;44.686;10.842;2022-08-24T03:35:34;4.07;;;2.50;;
23290;SDS011;11814;44.686;10.842;2022-08-24T03:38:00;6.50;;;2.42;;
23290;SDS011;11814;44.686;10.842;2022-08-24T03:40:27;4.50;;;2.40;;
23290;SDS011;11814;44.686;10.842;2022-08-24T03:42:53;3.85;;;2.50;;
23290;SDS011;11814;44.686;10.842;2022-08-24T03:45:19;4.80;;;2.75;;
23290;SDS011;11814;44.686;10.842;2022-08-24T03:47:46;5.93;;;2.78;;
23290;SDS011;11814;44.686;10.842;2022-08-24T03:50:11;4.20;;;2.42;;
23290;SDS011;11814;44.686;10.842;2022-08-24T03:52:37;4.18;;;2.00;;
23290;SDS011;11814;44.686;10.842;2022-08-24T03:55:03;4.72;;;2.17;;
23290;SDS011;11814;44.686;10.842;2022-08-24T03:57:30;5.72;;;2.65;;
23290;SDS011;11814;44.686;10.842;2022-08-24T03:59:56;3.63;;;2.63;;
23290;SDS011;11814;44.686;10.842;2022-08-24T04:02:22;5.07;;;2.35;;
23290;SDS011;11814;44.686;10.842;2022-08-24T04:04:48;5.05;;;2.88;;
23290;SDS011;11814;44.686;10.842;2022-08-24T04:07:14;7.47;;;3.00;;
23290;SDS011;11814;44.686;10.842;2022-08-24T04:09:40;7.28;;;3.20;;
23290;SDS011;11814;44.686;10.842;2022-08-24T04:12:06;3.50;;;2.78;;
23290;SDS011;11814;44.686;10.842;2022-08-24T04:14:32;4.40;;;2.97;;
23290;SDS011;11814;44.686;10.842;2022-08-24T04:16:58;6.82;;;3.42;;
23290;SDS011;11814;44.686;10.842;2022-08-24T04:19:25;8.38;;;3.38;;
23290;SDS011;11814;44.686;10.842;2022-08-24T04:21:51;8.15;;;3.60;;
23290;SDS011;11814;44.686;10.842;2022-08-24T04:24:17;6.38;;;3.15;;
23290;SDS011;11814;44.686;10.842;2022-08-24T04:26:44;5.63;;;3.20;;
23290;SDS011;11814;44.686;10.842;2022-08-24T04:29:19;6.95;;;2.60;;
23290;SDS011;11814;44.686;10.842;2022-08-24T04:31:47;6.97;;;2.75;;
23290;SDS011;11814;44.686;10.842;2022-08-24T04:34:13;4.90;;;2.90;;
23290;SDS011;11814;44.686;10.842;2022-08-24T04:36:41;4.40;;;2.92;;
23290;SDS011;11814;44.686;10.842;2022-08-24T04:39:08;4.35;;;2.90;;
23290;SDS011;11814;44.686;10.842;2022-08-24T04:41:34;8.05;;;2.92;;
23290;SDS011;11814;44.686;10.842;2022-08-24T04:44:00;4.65;;;2.90;;
23290;SDS011;11814;44.686;10.842;2022-08-24T04:46:27;4.63;;;2.90;;
23290;SDS011;11814;44.686;10.842;2022-08-24T04:48:52;4.97;;;2.97;;
23290;SDS011;11814;44.686;10.842;2022-08-24T04:51:19;4.82;;;2.60;;
23290;SDS011;11814;44.686;10.842;2022-08-24T04:53:45;5.28;;;2.58;;
23290;SDS011;11814;44.686;10.842;2022-08-24T04:56:17;4.35;;;2.55;;
23290;SDS011;11814;44.686;10.842;2022-08-24T04:58:47;9.82;;;2.95;;
23290;SDS011;11814;44.686;10.842;2022-08-24T05:01:15;3.58;;;2.40;;
23290;SDS011;11814;44.686;10.842;2022-08-24T05:03:46;8.27;;;2.60;;
23290;SDS011;11814;44.686;10.842;2022-08-24T05:06:14;5.05;;;2.67;;
23290;SDS011;11814;44.686;10.842;2022-08-24T05:08:42;7.38;;;2.97;;
23290;SDS011;11814;44.686;10.842;2022-08-24T05:11:08;6.10;;;3.17;;
23290;SDS011;11814;44.686;10.842;2022-08-24T05:13:34;7.05;;;3.30;;
23290;SDS011;11814;44.686;10.842;2022-08-24T05:16:00;5.10;;;3.28;;
23290;SDS011;11814;44.686;10.842;2022-08-24T05:18:29;7.05;;;3.20;;
23290;SDS011;11814;44.686;10.842;2022-08-24T05:20:57;4.57;;;2.85;;
23290;SDS011;11814;44.686;10.842;2022-08-24T05:23:24;9.38;;;3.13;;
23290;SDS011;11814;44.686;10.842;2022-08-24T05:25:50;5.43;;;2.78;;
23290;SDS011;11814;44.686;10.842;2022-08-24T05:28:15;7.10;;;2.88;;
23290;SDS011;11814;44.686;10.842;2022-08-24T05:30:41;8.13;;;3.03;;
23290;SDS011;11814;44.686;10.842;2022-08-24T05:33:07;10.43;;;2.97;;
23290;SDS011;11814;44.686;10.842;2022-08-24T05:35:39;5.45;;;3.00;;
23290;SDS011;11814;44.686;10.842;2022-08-24T05:38:05;8.25;;;2.33;;
23290;SDS011;11814;44.686;10.842;2022-08-24T05:40:31;10.52;;;2.42;;
23290;SDS011;11814;44.686;10.842;2022-08-24T05:42:57;11.50;;;2.75;;
23290;SDS011;11814;44.686;10.842;2022-08-24T05:45:22;8.05;;;2.40;;
23290;SDS011;11814;44.686;10.842;2022-08-24T05:47:48;7.78;;;2.00;;
23290;SDS011;11814;44.686;10.842;2022-08-24T05:50:14;6.50;;;2.08;;
23290;SDS011;11814;44.686;10.842;2022-08-24T05:52:40;5.78;;;2.08;;
23290;SDS011;11814;44.686;10.842;2022-08-24T05:55:06;8.27;;;2.00;;
23290;SDS011;11814;44.686;10.842;2022-08-24T05:57:33;5.57;;;2.20;;
23290;SDS011;11814;44.686;10.842;2022-08-24T05:59:59;7.35;;;1.60;;
23290;SDS011;11814;44.686;10.842;2022-08-24T06:02:25;7.18;;;1.90;;
23290;SDS011;11814;44.686;10.842;2022-08-24T06:04:51;8.43;;;1.60;;
23290;SDS011;11814;44.686;10.842;2022-08-24T06:07:17;9.50;;;2.67;;
23290;SDS011;11814;44.686;10.842;2022-08-24T06:09:43;5.10;;;1.77;;
23290;SDS011;11814;44.686;10.842;2022-08-24T06:12:09;10.18;;;1.60;;
23290;SDS011;11814;44.686;10.842;2022-08-24T06:14:36;8.48;;;1.40;;
23290;SDS011;11814;44.686;10.842;2022-08-24T06:17:03;9.52;;;1.42;;
23290;SDS011;11814;44.686;10.842;2022-08-24T06:19:30;11.50;;;1.70;;
23290;SDS011;11814;44.686;10.842;2022-08-24T06:21:56;10.32;;;1.58;;
23290;SDS011;11814;44.686;10.842;2022-08-24T06:24:22;9.18;;;1.60;;
23290;SDS011;11814;44.686;10.842;2022-08-24T06:27:09;10.50;;;1.35;;
23290;SDS011;11814;44.686;10.842;2022-08-24T06:29:45;6.38;;;1.17;;
23290;SDS011;11814;44.686;10.842;2022-08-24T06:32:30;4.32;;;1.15;;
23290;SDS011;11814;44.686;10.842;2022-08-24T06:34:56;4.55;;;1.15;;
23290;SDS011;11814;44.686;10.842;2022-08-24T06:37:23;5.65;;;1.10;;
23290;SDS011;11814;44.686;10.842;2022-08-24T06:39:54;7.32;;;1.45;;
23290;SDS011;11814;44.686;10.842;2022-08-24T06:42:21;10.80;;;2.00;;
23290;SDS011;11814;44.686;10.842;2022-08-24T06:44:49;11.77;;;2.35;;
23290;SDS011;11814;44.686;10.842;2022-08-24T06:47:16;10.35;;;1.33;;
23290;SDS011;11814;44.686;10.842;2022-08-24T06:49:42;4.10;;;1.20;;
23290;SDS011;11814;44.686;10.842;2022-08-24T06:52:08;6.90;;;1.20;;
23290;SDS011;11814;44.686;10.842;2022-08-24T06:54:35;6.07;;;1.10;;
23290;SDS011;11814;44.686;10.842;2022-08-24T06:57:01;5.22;;;1.15;;
23290;SDS011;11814;44.686;10.842;2022-08-24T06:59:27;6.82;;;1.30;;
23290;SDS011;11814;44.686;10.842;2022-08-24T07:01:54;6.63;;;0.88;;
23290;SDS011;11814;44.686;10.842;2022-08-24T07:04:20;3.85;;;0.65;;
23290;SDS011;11814;44.686;10.842;2022-08-24T07:06:48;5.43;;;0.98;;
23290;SDS011;11814;44.686;10.842;2022-08-24T07:09:14;7.47;;;1.02;;
23290;SDS011;11814;44.686;10.842;2022-08-24T07:11:40;10.10;;;0.70;;
23290;SDS011;11814;44.686;10.842;2022-08-24T07:14:06;3.35;;;0.70;;
23290;SDS011;11814;44.686;10.842;2022-08-24T07:16:32;3.72;;;1.13;;
23290;SDS011;11814;44.686;10.842;2022-08-24T07:18:59;5.93;;;1.10;;
23290;SDS011;11814;44.686;10.842;2022-08-24T07:21:26;5.15;;;1.00;;
23290;SDS011;11814;44.686;10.842;2022-08-24T07:23:55;5.45;;;1.05;;
23290;SDS011;11814;44.686;10.842;2022-08-24T07:26:24;3.80;;;1.00;;
23290;SDS011;11814;44.686;10.842;2022-08-24T07:28:52;3.15;;;0.80;;
23290;SDS011;11814;44.686;10.842;2022-08-24T07:31:25;5.72;;;0.90;;
23290;SDS011;11814;44.686;10.842;2022-08-24T07:33:51;3.47;;;0.70;;
23290;SDS011;11814;44.686;10.842;2022-08-24T07:36:17;2.05;;;0.90;;
23290;SDS011;11814;44.686;10.842;2022-08-24T07:38:43;4.10;;;0.57;;
23290;SDS011;11814;44.686;10.842;2022-08-24T07:41:10;2.58;;;0.70;;
23290;SDS011;11814;44.686;10.842;2022-08-24T07:43:38;4.22;;;0.45;;
23290;SDS011;11814;44.686;10.842;2022-08-24T07:46:05;2.40;;;0.70;;
23290;SDS011;11814;44.686;10.842;2022-08-24T07:48:32;2.85;;;0.70;;
23290;SDS011;11814;44.686;10.842;2022-08-24T07:51:05;3.55;;;0.50;;
23290;SDS011;11814;44.686;10.842;2022-08-24T07:53:35;1.95;;;0.70;;
23290;SDS011;11814;44.686;10.842;2022-08-24T07:56:01;1.38;;;0.47;;
23290;SDS011;11814;44.686;10.842;2022-08-24T07:58:27;4.75;;;0.60;;
23290;SDS011;11814;44.686;10.842;2022-08-24T08:00:53;1.08;;;0.50;;
23290;SDS011;11814;44.686;10.842;2022-08-24T08:03:19;2.67;;;0.40;;
23290;SDS011;11814;44.686;10.842;2022-08-24T08:05:45;0.88;;;0.30;;
23290;SDS011;11814;44.686;10.842;2022-08-24T08:08:13;1.60;;;0.57;;
23290;SDS011;11814;44.686;10.842;2022-08-24T08:10:39;0.68;;;0.40;;
23290;SDS011;11814;44.686;10.842;2022-08-24T08:13:05;3.42;;;0.55;;
23290;SDS011;11814;44.686;10.842;2022-08-24T08:15:31;1.70;;;0.60;;
23290;SDS011;11814;44.686;10.842;2022-08-24T08:17:57;3.70;;;0.55;;
23290;SDS011;11814;44.686;10.842;2022-08-24T08:20:23;4.78;;;0.77;;
23290;SDS011;11814;44.686;10.842;2022-08-24T08:22:49;2.53;;;0.45;;
23290;SDS011;11814;44.686;10.842;2022-08-24T08:25:33;3.08;;;0.40;;
23290;SDS011;11814;44.686;10.842;2022-08-24T08:28:02;1.60;;;0.50;;
23290;SDS011;11814;44.686;10.842;2022-08-24T08:30:29;2.13;;;0.52;;
23290;SDS011;11814;44.686;10.842;2022-08-24T08:32:55;2.65;;;0.57;;
23290;SDS011;11814;44.686;10.842;2022-08-24T08:35:21;1.70;;;0.45;;
23290;SDS011;11814;44.686;10.842;2022-08-24T08:37:47;2.72;;;0.57;;
23290;SDS011;11814;44.686;10.842;2022-08-24T12:38:48;1.33;;;0.40;;
23290;SDS011;11814;44.686;10.842;2022-08-24T12:41:23;3.90;;;0.50;;
23290;SDS011;11814;44.686;10.842;2022-08-24T12:44:14;3.83;;;0.60;;
23290;SDS011;11814;44.686;10.842;2022-08-24T12:46:42;1.17;;;0.35;;
23290;SDS011;11814;44.686;10.842;2022-08-24T12:49:21;7.57;;;0.70;;
23290;SDS011;11814;44.686;10.842;2022-08-24T13:00:04;5.78;;;0.57;;
23290;SDS011;11814;44.686;10.842;2022-08-24T13:02:39;12.90;;;1.15;;
23290;SDS011;11814;44.686;10.842;2022-08-24T13:05:13;3.92;;;0.47;;
23290;SDS011;11814;44.686;10.842;2022-08-24T13:07:45;4.80;;;0.60;;
23290;SDS011;11814;44.686;10.842;2022-08-24T13:12:58;1.75;;;0.30;;
23290;SDS011;11814;44.686;10.842;2022-08-24T13:23:04;6.03;;;0.50;;
23290;SDS011;11814;44.686;10.842;2022-08-24T13:28:35;0.93;;;0.45;;
23290;SDS011;11814;44.686;10.842;2022-08-24T13:42:02;0.88;;;0.40;;
23290;SDS011;11814;44.686;10.842;2022-08-24T13:55:47;3.40;;;0.40;;
23290;SDS011;11814;44.686;10.842;2022-08-24T14:01:12;0.60;;;0.30;;
23290;SDS011;11814;44.686;10.842;2022-08-24T14:04:03;3.03;;;0.20;;
23290;SDS011;11814;44.686;10.842;2022-08-24T14:09:55;4.95;;;0.50;;
23290;SDS011;11814;44.686;10.842;2022-08-24T14:23:03;0.65;;;0.38;;
23290;SDS011;11814;44.686;10.842;2022-08-24T14:25:35;5.80;;;0.43;;
23290;SDS011;11814;44.686;10.842;2022-08-24T14:30:48;1.30;;;0.30;;
23290;SDS011;11814;44.686;10.842;2022-08-24T14:45:04;1.08;;;0.30;;
23290;SDS011;11814;44.686;10.842;2022-08-24T14:47:45;3.35;;;0.45;;
23290;SDS011;11814;44.686;10.842;2022-08-24T14:50:41;6.05;;;0.68;;
23290;SDS011;11814;44.686;10.842;2022-08-24T15:04:54;1.98;;;0.55;;
23290;SDS011;11814;44.686;10.842;2022-08-24T15:09:47;4.80;;;0.30;;
23290;SDS011;11814;44.686;10.842;2022-08-24T15:20:43;1.05;;;0.30;;
23290;SDS011;11814;44.686;10.842;2022-08-24T15:23:19;4.25;;;0.52;;
23290;SDS011;11814;44.686;10.842;2022-08-24T15:25:54;4.68;;;0.40;;
23290;SDS011;11814;44.686;10.842;2022-08-24T15:28:32;2.35;;;0.40;;
23290;SDS011;11814;44.686;10.842;2022-08-24T15:30:59;1.15;;;0.40;;
23290;SDS011;11814;44.686;10.842;2022-08-24T15:33:28;2.78;;;0.40;;
23290;SDS011;11814;44.686;10.842;2022-08-24T15:38:42;1.50;;;0.47;;
23290;SDS011;11814;44.686;10.842;2022-08-24T15:44:19;1.30;;;0.52;;
23290;SDS011;11814;44.686;10.842;2022-08-24T15:46:44;0.80;;;0.30;;
23290;SDS011;11814;44.686;10.842;2022-08-24T15:49:15;4.03;;;0.30;;
23290;SDS011;11814;44.686;10.842;2022-08-24T15:51:46;2.33;;;0.28;;
23290;SDS011;11814;44.686;10.842;2022-08-24T15:56:53;1.33;;;0.40;;
23290;SDS011;11814;44.686;10.842;2022-08-24T15:59:25;1.73;;;0.32;;
23290;SDS011;11814;44.686;10.842;2022-08-24T16:01:54;1.95;;;0.50;;
23290;SDS011;11814;44.686;10.842;2022-08-24T16:04:42;1.05;;;0.47;;
23290;SDS011;11814;44.686;10.842;2022-08-24T16:07:13;1.98;;;0.50;;
23290;SDS011;11814;44.686;10.842;2022-08-24T16:09:45;1.90;;;0.50;;
23290;SDS011;11814;44.686;10.842;2022-08-24T16:12:12;1.13;;;0.45;;
23290;SDS011;11814;44.686;10.842;2022-08-24T16:15:07;2.10;;;0.50;;
23290;SDS011;11814;44.686;10.842;2022-08-24T16:17:37;2.92;;;0.52;;
23290;SDS011;11814;44.686;10.842;2022-08-24T16:20:26;4.65;;;0.60;;
23290;SDS011;11814;44.686;10.842;2022-08-24T16:22:56;1.25;;;0.40;;
23290;SDS011;11814;44.686;10.842;2022-08-24T16:25:28;2.67;;;0.47;;
23290;SDS011;11814;44.686;10.842;2022-08-24T16:30:38;7.43;;;0.70;;
23290;SDS011;11814;44.686;10.842;2022-08-24T16:33:05;1.80;;;0.30;;
23290;SDS011;11814;44.686;10.842;2022-08-24T16:35:31;4.88;;;0.43;;
23290;SDS011;11814;44.686;10.842;2022-08-24T16:37:57;1.02;;;0.32;;
23290;SDS011;11814;44.686;10.842;2022-08-24T16:40:24;4.68;;;0.80;;
23290;SDS011;11814;44.686;10.842;2022-08-24T16:42:50;1.52;;;0.73;;
23290;SDS011;11814;44.686;10.842;2022-08-24T16:45:17;1.50;;;0.50;;
23290;SDS011;11814;44.686;10.842;2022-08-24T16:47:45;2.50;;;0.32;;
23290;SDS011;11814;44.686;10.842;2022-08-24T16:50:12;3.05;;;0.40;;
23290;SDS011;11814;44.686;10.842;2022-08-24T16:52:40;4.03;;;0.40;;
23290;SDS011;11814;44.686;10.842;2022-08-24T16:55:06;2.83;;;0.32;;
23290;SDS011;11814;44.686;10.842;2022-08-24T16:57:32;5.93;;;0.38;;
23290;SDS011;11814;44.686;10.842;2022-08-24T17:00:00;1.45;;;0.32;;
23290;SDS011;11814;44.686;10.842;2022-08-24T17:02:30;4.07;;;0.38;;
23290;SDS011;11814;44.686;10.842;2022-08-24T17:04:57;2.80;;;0.40;;
23290;SDS011;11814;44.686;10.842;2022-08-24T17:07:23;2.78;;;0.43;;
23290;SDS011;11814;44.686;10.842;2022-08-24T17:09:52;4.72;;;0.60;;
23290;SDS011;11814;44.686;10.842;2022-08-24T17:12:20;2.38;;;0.60;;
23290;SDS011;11814;44.686;10.842;2022-08-24T17:14:46;1.65;;;0.60;;
23290;SDS011;11814;44.686;10.842;2022-08-24T17:17:13;2.30;;;0.70;;
23290;SDS011;11814;44.686;10.842;2022-08-24T17:19:41;1.90;;;0.70;;
23290;SDS011;11814;44.686;10.842;2022-08-24T17:22:07;2.35;;;0.55;;
23290;SDS011;11814;44.686;10.842;2022-08-24T17:24:34;3.03;;;0.80;;
23290;SDS011;11814;44.686;10.842;2022-08-24T17:27:00;3.67;;;0.65;;
23290;SDS011;11814;44.686;10.842;2022-08-24T17:29:26;1.25;;;0.70;;
23290;SDS011;11814;44.686;10.842;2022-08-24T17:31:52;2.55;;;0.60;;
23290;SDS011;11814;44.686;10.842;2022-08-24T17:34:19;1.40;;;0.40;;
23290;SDS011;11814;44.686;10.842;2022-08-24T17:36:46;5.10;;;0.73;;
23290;SDS011;11814;44.686;10.842;2022-08-24T17:39:13;4.13;;;0.52;;
23290;SDS011;11814;44.686;10.842;2022-08-24T17:41:41;2.65;;;0.47;;
23290;SDS011;11814;44.686;10.842;2022-08-24T17:44:08;2.08;;;0.75;;
23290;SDS011;11814;44.686;10.842;2022-08-24T17:46:35;3.20;;;0.82;;
23290;SDS011;11814;44.686;10.842;2022-08-24T17:49:01;1.67;;;0.60;;
23290;SDS011;11814;44.686;10.842;2022-08-24T17:51:27;2.30;;;0.63;;
23290;SDS011;11814;44.686;10.842;2022-08-24T17:53:53;4.10;;;0.45;;
23290;SDS011;11814;44.686;10.842;2022-08-24T17:56:19;6.18;;;0.93;;
23290;SDS011;11814;44.686;10.842;2022-08-24T17:58:45;1.45;;;0.65;;
23290;SDS011;11814;44.686;10.842;2022-08-24T18:01:29;2.70;;;0.60;;
23290;SDS011;11814;44.686;10.842;2022-08-24T18:03:55;4.15;;;0.47;;
23290;SDS011;11814;44.686;10.842;2022-08-24T18:06:21;4.88;;;0.60;;
23290;SDS011;11814;44.686;10.842;2022-08-24T18:08:51;3.13;;;0.60;;
23290;SDS011;11814;44.686;10.842;2022-08-24T18:11:20;1.95;;;0.57;;
23290;SDS011;11814;44.686;10.842;2022-08-24T18:13:47;5.60;;;0.90;;
23290;SDS011;11814;44.686;10.842;2022-08-24T18:16:15;5.47;;;0.70;;
23290;SDS011;11814;44.686;10.842;2022-08-24T18:18:44;1.63;;;0.60;;
23290;SDS011;11814;44.686;10.842;2022-08-24T18:21:11;2.30;;;0.70;;
23290;SDS011;11814;44.686;10.842;2022-08-24T18:23:38;5.05;;;0.70;;
23290;SDS011;11814;44.686;10.842;2022-08-24T18:26:03;6.28;;;0.70;;
23290;SDS011;11814;44.686;10.842;2022-08-24T18:28:29;5.05;;;0.90;;
23290;SDS011;11814;44.686;10.842;2022-08-24T18:30:55;6.95;;;1.63;;
23290;SDS011;11814;44.686;10.842;2022-08-24T18:33:21;3.20;;;1.08;;
23290;SDS011;11814;44.686;10.842;2022-08-24T18:35:46;9.75;;;1.50;;
23290;SDS011;11814;44.686;10.842;2022-08-24T18:38:12;6.50;;;1.30;;
23290;SDS011;11814;44.686;10.842;2022-08-24T18:40:39;8.48;;;1.27;;
23290;SDS011;11814;44.686;10.842;2022-08-24T18:43:05;10.88;;;1.35;;
23290;SDS011;11814;44.686;10.842;2022-08-24T18:45:32;9.48;;;1.55;;
23290;SDS011;11814;44.686;10.842;2022-08-24T18:47:59;8.20;;;1.50;;
23290;SDS011;11814;44.686;10.842;2022-08-24T18:50:26;5.30;;;1.27;;
23290;SDS011;11814;44.686;10.842;2022-08-24T18:52:56;7.18;;;0.95;;
23290;SDS011;11814;44.686;10.842;2022-08-24T18:55:23;5.32;;;1.10;;
23290;SDS011;11814;44.686;10.842;2022-08-24T18:57:49;4.57;;;0.80;;
23290;SDS011;11814;44.686;10.842;2022-08-24T19:00:15;4.15;;;1.00;;
23290;SDS011;11814;44.686;10.842;2022-08-24T19:02:41;2.30;;;0.75;;
23290;SDS011;11814;44.686;10.842;2022-08-24T19:05:08;5.28;;;0.80;;
23290;SDS011;11814;44.686;10.842;2022-08-24T19:07:37;18.80;;;1.50;;
23290;SDS011;11814;44.686;10.842;2022-08-24T19:10:06;3.53;;;0.90;;
23290;SDS011;11814;44.686;10.842;2022-08-24T19:12:36;5.45;;;0.77;;
23290;SDS011;11814;44.686;10.842;2022-08-24T19:15:04;3.40;;;0.85;;
23290;SDS011;11814;44.686;10.842;2022-08-24T19:17:30;5.88;;;0.93;;
23290;SDS011;11814;44.686;10.842;2022-08-24T19:19:56;3.88;;;0.80;;
23290;SDS011;11814;44.686;10.842;2022-08-24T19:22:22;7.20;;;0.98;;
23290;SDS011;11814;44.686;10.842;2022-08-24T19:24:49;3.67;;;1.05;;
23290;SDS011;11814;44.686;10.842;2022-08-24T19:27:14;4.32;;;1.17;;
23290;SDS011;11814;44.686;10.842;2022-08-24T19:29:40;3.65;;;1.25;;
23290;SDS011;11814;44.686;10.842;2022-08-24T19:32:06;4.95;;;1.15;;
23290;SDS011;11814;44.686;10.842;2022-08-24T19:34:34;3.00;;;0.90;;
23290;SDS011;11814;44.686;10.842;2022-08-24T19:37:00;3.97;;;1.08;;
23290;SDS011;11814;44.686;10.842;2022-08-24T19:39:26;6.53;;;1.20;;
23290;SDS011;11814;44.686;10.842;2022-08-24T19:41:52;3.35;;;1.10;;
23290;SDS011;11814;44.686;10.842;2022-08-24T19:44:18;2.28;;;1.10;;
23290;SDS011;11814;44.686;10.842;2022-08-24T19:47:05;4.20;;;1.35;;
23290;SDS011;11814;44.686;10.842;2022-08-24T19:49:31;2.40;;;1.10;;
23290;SDS011;11814;44.686;10.842;2022-08-24T19:51:57;3.35;;;1.52;;
23290;SDS011;11814;44.686;10.842;2022-08-24T19:54:26;2.53;;;1.15;;
23290;SDS011;11814;44.686;10.842;2022-08-24T19:56:57;3.08;;;1.30;;
23290;SDS011;11814;44.686;10.842;2022-08-24T19:59:24;4.15;;;1.40;;
23290;SDS011;11814;44.686;10.842;2022-08-24T20:01:52;6.15;;;1.35;;
23290;SDS011;11814;44.686;10.842;2022-08-24T20:04:17;7.15;;;1.60;;
23290;SDS011;11814;44.686;10.842;2022-08-24T20:06:43;3.60;;;1.35;;
23290;SDS011;11814;44.686;10.842;2022-08-24T20:09:09;4.55;;;1.40;;
23290;SDS011;11814;44.686;10.842;2022-08-24T20:11:35;3.92;;;1.38;;
23290;SDS011;11814;44.686;10.842;2022-08-24T20:14:02;2.42;;;1.35;;
23290;SDS011;11814;44.686;10.842;2022-08-24T20:16:39;2.75;;;1.17;;
23290;SDS011;11814;44.686;10.842;2022-08-24T20:19:09;7.50;;;1.38;;
23290;SDS011;11814;44.686;10.842;2022-08-24T20:21:35;2.33;;;1.27;;
23290;SDS011;11814;44.686;10.842;2022-08-24T20:24:01;4.35;;;1.38;;
23290;SDS011;11814;44.686;10.842;2022-08-24T20:26:28;4.97;;;1.40;;
23290;SDS011;11814;44.686;10.842;2022-08-24T20:28:56;2.88;;;1.20;;